Saturday, December 15, 2018, 10:35 PM EST
Back to Local

KLCI, Laconia, Laconia Municipal Airport

Location: Laconia, NH, United States Lat: 43.567
Local Time: 10:35 PM EST ( 3:35 GMT) Lon: -71.417
Time Zone: US/Eastern Elev: 544 ft

Show me the last for .
Show Coded

Time T Td Feel RH Dir Speed Gust Alt SLP Vis Weather Sky Remarks
2018-12-15 21:56 26 24 - 92 - Calm - 30.27 30.32 10 CLR None
2018-12-15 20:56 26 24 - 92 - Calm - 30.25 30.32 10 CLR None
2018-12-15 19:56 28 26 24 92 220° 3 - 30.23 30.28 10 CLR None
2018-12-15 18:56 28 26 - 92 - Calm - 30.23 30.29 10 CLR 6-hr Min Temp (7pm): 28.0°F
6-hr Max Temp (7pm): 45.0°F
2018-12-15 17:56 32 28 - 85 - Calm - 30.23 30.28 10 CLR None
2018-12-15 16:56 34 28 - 78 - Calm - 30.21 30.27 10 CLR None
2018-12-15 15:56 40 27 38 59 200° 3 - 30.19 30.25 10 CLR None
2018-12-15 14:56 42 28 38 57 250° 7 - 30.18 30.24 10 CLR None
2018-12-15 13:56 44 29 40 55 270° 8 - 30.17 30.23 10 CLR None
2018-12-15 12:56 45 31 41 57 330° 8 - 30.16 30.21 10 CLR 6-hr Min Temp (1pm): 34.0°F
6-hr Max Temp (1pm): 46.9°F
2018-12-15 11:56 46 33 42 60 270° 7 - 30.15 30.21 10 CLR None
2018-12-15 10:56 45 36 41 70 310° 7 - 30.16 30.22 10 BKN035 None
2018-12-15 09:56 46 37 43 70 240° 6 - 30.16 30.22 10 CLR None
2018-12-15 08:56 41 37 38 85 250° 5 - 30.15 30.21 10 CLR None
2018-12-15 07:56 35 34 29 95 250° 8 - 30.14 30.20 7 BKN035 None
2018-12-15 06:56 37 35 30 92 240° 9 - 30.13 30.19 10 CLR 6-hr Min Temp (7am): 35.1°F
6-hr Max Temp (7am): 41.0°F
2018-12-15 05:56 40 37 34 89 250° 9 - 30.11 30.16 10 CLR None
2018-12-15 04:56 40 38 33 92 220° 13 - 30.09 30.14 10 CLR None
2018-12-15 03:56 36 35 28 96 250° 10 - 30.10 30.16 8 CLR None
2018-12-15 02:56 38 37 31 96 260° 9 - 30.11 30.16 10 CLR None
2018-12-15 01:56 35 33 27 92 250° 12 - 30.13 30.19 10 SCT032 None
2018-12-15 00:56 36 33 30 89 250° 8 - 30.13 30.19 10 OVC034 6-hr Min Temp (1am): 32.0°F
6-hr Max Temp (1am): 39.9°F
2018-12-14 23:56 40 36 34 85 230° 9 - 30.14 30.19 10 FEW060 BKN080 OVC100 None
2018-12-14 22:56 34 30 29 85 250° 6 - 30.18 30.24 10 OVC016 24-hr Min Temp (11pm): 25.0°F
24-hr Max Temp (11pm): 36.0°F

Support USWX by starting your Amazon purchase here.